createdAt,value
2023-02-02T00:01:55.584Z,11.20
2023-02-02T00:05:00.696Z,6.60
2023-02-02T00:08:03.181Z,13.90
2023-02-02T00:11:07.030Z,11.70
2023-02-02T00:14:09.822Z,10.70
2023-02-02T00:17:14.360Z,12.10
2023-02-02T00:20:17.160Z,8.60
2023-02-02T00:23:19.466Z,14.30
2023-02-02T00:26:21.809Z,13.00
2023-02-02T00:29:31.687Z,15.50
2023-02-02T00:32:35.888Z,12.60
2023-02-02T00:35:40.565Z,16.50
2023-02-02T00:38:44.142Z,14.00
2023-02-02T00:41:50.028Z,10.20
2023-02-02T00:45:12.566Z,14.80
2023-02-02T00:48:14.975Z,10.70
2023-02-02T00:51:19.596Z,13.80
2023-02-02T00:54:22.777Z,9.80
2023-02-02T00:57:24.694Z,8.80
2023-02-02T01:00:27.257Z,11.70
2023-02-02T01:03:29.868Z,14.00
2023-02-02T01:06:31.930Z,8.40
2023-02-02T01:09:35.580Z,9.40
2023-02-02T01:12:40.684Z,9.40
2023-02-02T01:15:42.682Z,11.90
2023-02-02T01:18:46.812Z,12.60
2023-02-02T01:21:50.092Z,11.80
2023-02-02T01:24:56.163Z,8.90
2023-02-02T01:27:59.239Z,11.70
2023-02-02T01:31:13.848Z,10.60
2023-02-02T01:34:16.282Z,14.40
2023-02-02T01:37:23.113Z,13.30
2023-02-02T01:40:26.657Z,17.10
2023-02-02T01:43:49.823Z,11.80
2023-02-02T01:46:52.409Z,15.70
2023-02-02T01:49:55.683Z,11.80
2023-02-02T01:53:01.764Z,10.90
2023-02-02T01:56:08.170Z,11.70
2023-02-02T01:59:15.222Z,13.00
2023-02-02T02:02:17.956Z,9.60
2023-02-02T02:05:27.899Z,12.50
2023-02-02T02:08:53.888Z,12.50
2023-02-02T02:11:56.690Z,14.60
2023-02-02T02:15:19.266Z,10.10
2023-02-02T02:18:40.803Z,17.70
2023-02-02T02:22:08.919Z,12.90
2023-02-02T02:29:32.104Z,15.60
2023-02-02T02:32:37.757Z,10.80
2023-02-02T02:35:47.869Z,11.40
2023-02-02T02:39:06.342Z,13.40
2023-02-02T02:42:16.225Z,16.90
2023-02-02T02:45:21.440Z,14.10
2023-02-02T02:48:25.826Z,12.60
2023-02-02T02:51:48.310Z,14.70
2023-02-02T02:55:00.272Z,16.40
2023-02-02T02:58:39.779Z,18.20
2023-02-02T03:02:16.437Z,15.90
2023-02-02T03:05:54.868Z,9.90
2023-02-02T03:09:08.273Z,12.40
2023-02-02T03:12:12.899Z,9.20
2023-02-02T03:15:16.397Z,10.10
2023-02-02T03:18:22.446Z,10.20
2023-02-02T03:21:27.133Z,11.30
2023-02-02T03:24:29.986Z,16.20
2023-02-02T03:27:34.195Z,12.30
2023-02-02T03:30:37.890Z,12.00
2023-02-02T03:33:42.797Z,10.70
2023-02-02T03:36:49.250Z,12.00
2023-02-02T03:39:51.966Z,10.00
2023-02-02T03:42:58.238Z,7.90
2023-02-02T07:26:56.361Z,18.30
2023-02-02T07:30:03.935Z,14.50
2023-02-02T07:33:06.961Z,13.60
2023-02-02T07:36:10.381Z,13.80
2023-02-02T07:39:13.130Z,11.90
2023-02-02T07:42:15.158Z,16.30
2023-02-02T07:45:27.040Z,11.30
2023-02-02T07:48:30.684Z,11.10
2023-02-02T07:51:33.977Z,9.40
2023-02-02T07:54:36.752Z,11.50
2023-02-02T07:57:39.514Z,9.80
2023-02-02T08:00:42.658Z,8.10
2023-02-02T08:03:47.099Z,9.10
2023-02-02T08:06:49.195Z,9.20
2023-02-02T08:09:52.044Z,11.70
2023-02-02T08:12:54.395Z,11.90
2023-02-02T08:16:00.710Z,7.30
2023-02-02T08:19:02.632Z,8.70
2023-02-02T08:22:05.073Z,9.80
2023-02-02T08:25:10.382Z,8.50
2023-02-02T08:28:12.843Z,7.10
2023-02-02T08:31:22.427Z,8.50
2023-02-02T08:34:24.585Z,9.10
2023-02-02T08:37:27.912Z,9.20
2023-02-02T08:40:31.127Z,10.60
2023-02-02T08:43:34.573Z,8.90
2023-02-02T08:46:37.050Z,8.90
2023-02-02T08:49:41.960Z,7.10
2023-02-02T08:52:44.194Z,9.30
2023-02-02T08:55:47.867Z,7.80
2023-02-02T08:58:55.199Z,7.40
2023-02-02T09:02:16.294Z,6.20
2023-02-02T09:05:40.734Z,8.80
2023-02-02T09:08:44.577Z,8.60
2023-02-02T09:11:56.248Z,8.50
2023-02-02T09:15:01.850Z,11.70
2023-02-02T09:18:05.655Z,9.30
2023-02-02T09:21:14.877Z,9.80
2023-02-02T09:24:18.893Z,11.20
2023-02-02T09:27:22.219Z,9.90
2023-02-02T09:30:25.375Z,9.70
2023-02-02T09:33:28.781Z,8.50
2023-02-02T09:36:33.124Z,9.70
2023-02-02T09:39:35.291Z,9.30
2023-02-02T09:43:00.893Z,8.60
2023-02-02T09:46:26.145Z,11.80
2023-02-02T09:49:36.966Z,11.50
2023-02-02T09:52:46.047Z,9.10
2023-02-02T09:55:56.487Z,9.40
2023-02-02T09:59:18.780Z,8.60
2023-02-02T10:02:53.007Z,9.80
2023-02-02T10:06:15.370Z,8.30
2023-02-02T10:09:43.147Z,11.80
2023-02-02T10:13:02.581Z,10.30
2023-02-02T10:16:16.794Z,11.40
2023-02-02T10:19:19.980Z,10.20
2023-02-02T10:22:29.066Z,8.30
2023-02-02T10:25:33.737Z,7.90
2023-02-02T10:29:00.412Z,7.90
2023-02-02T10:32:22.447Z,8.30
2023-02-02T10:35:47.191Z,7.40
2023-02-02T10:39:03.296Z,7.60
2023-02-02T10:42:18.036Z,8.60
2023-02-02T10:45:23.927Z,7.60
2023-02-02T10:48:54.207Z,8.00
2023-02-02T10:52:10.745Z,8.20
2023-02-02T10:55:30.766Z,9.10
2023-02-02T10:58:58.370Z,5.90
2023-02-02T11:02:20.316Z,8.80
2023-02-02T11:05:47.681Z,7.30
2023-02-02T11:08:57.681Z,8.50
2023-02-02T11:12:21.388Z,6.60
2023-02-02T11:15:28.750Z,7.40
2023-02-02T11:18:32.878Z,7.70
2023-02-02T11:21:37.949Z,11.20
2023-02-02T11:24:47.298Z,6.50
2023-02-02T11:27:49.555Z,6.10
2023-02-02T11:30:53.373Z,6.90
2023-02-02T11:34:21.199Z,6.50
2023-02-02T11:37:29.648Z,7.60
2023-02-02T11:40:36.490Z,8.40
2023-02-02T11:43:47.189Z,6.70
2023-02-02T11:46:51.357Z,8.80
2023-02-02T11:49:57.450Z,6.10
2023-02-02T14:18:59.630Z,14.80
2023-02-02T14:22:09.733Z,14.40
2023-02-02T14:25:33.345Z,15.50
2023-02-02T14:28:48.732Z,15.50
2023-02-02T14:31:54.065Z,14.90
2023-02-02T14:35:26.135Z,16.20
2023-02-02T14:39:01.094Z,15.10
2023-02-02T14:42:35.781Z,16.20
2023-02-02T14:45:42.377Z,14.10
2023-02-02T14:49:14.507Z,18.30
2023-02-02T14:52:22.893Z,17.90
2023-02-02T14:55:29.297Z,14.90
2023-02-02T14:58:34.435Z,14.40
2023-02-02T15:01:39.335Z,15.50
2023-02-02T15:04:49.345Z,15.80
2023-02-02T15:07:54.323Z,15.90
2023-02-02T15:11:23.075Z,17.50
2023-02-02T15:14:31.620Z,15.60
2023-02-02T15:18:16.607Z,14.80
2023-02-02T15:21:23.420Z,16.00
2023-02-02T15:24:30.197Z,19.20
2023-02-02T15:27:33.292Z,18.10
2023-02-02T15:30:40.622Z,18.60
2023-02-02T15:33:51.119Z,21.70
2023-02-02T15:36:59.435Z,24.30
2023-02-02T15:40:05.088Z,23.70
2023-02-02T15:43:13.167Z,20.10
2023-02-02T15:46:35.276Z,24.00
2023-02-02T15:49:38.637Z,23.20
2023-02-02T15:52:53.053Z,23.60
2023-02-02T15:55:56.936Z,23.90
2023-02-02T15:59:02.579Z,23.30
2023-02-02T16:02:12.121Z,23.10
2023-02-02T16:05:36.472Z,21.80
2023-02-02T16:08:40.601Z,22.70
2023-02-02T16:11:44.934Z,29.10
2023-02-02T16:14:53.810Z,27.10
2023-02-02T16:18:05.060Z,23.80
2023-02-02T16:21:19.219Z,24.60
2023-02-02T16:24:32.719Z,24.80
2023-02-02T16:27:37.667Z,28.20
2023-02-02T16:30:59.635Z,26.20
2023-02-02T16:34:04.109Z,21.10
2023-02-02T16:37:07.413Z,23.20
2023-02-02T16:40:27.342Z,20.60
2023-02-02T16:43:34.391Z,18.30
2023-02-02T16:50:29.244Z,19.40
2023-02-02T16:53:41.017Z,23.20
2023-02-02T16:56:55.683Z,23.00
2023-02-02T17:00:05.773Z,25.50
2023-02-02T17:03:45.933Z,21.80
2023-02-02T17:06:53.557Z,22.90
2023-02-02T17:10:33.774Z,23.40
2023-02-02T17:13:40.718Z,24.50
2023-02-02T17:17:16.456Z,17.20
2023-02-02T17:20:22.552Z,18.40
2023-02-02T17:23:28.241Z,19.00
2023-02-02T17:26:39.005Z,18.20
2023-02-02T17:29:41.243Z,17.80
2023-02-02T17:32:50.575Z,23.50
2023-02-02T17:36:20.534Z,23.50
2023-02-02T17:39:28.215Z,21.70
2023-02-02T17:42:38.268Z,22.90
2023-02-02T17:45:48.756Z,18.00
2023-02-02T17:49:05.762Z,18.20
2023-02-02T17:52:15.886Z,20.00
2023-02-02T17:55:24.784Z,19.00
2023-02-02T17:58:27.426Z,17.50
2023-02-02T18:01:37.645Z,17.60
2023-02-02T18:04:46.882Z,21.40
2023-02-02T18:07:50.597Z,18.60
2023-02-02T18:10:59.488Z,25.50
2023-02-02T18:14:09.026Z,16.90
2023-02-02T18:17:15.751Z,19.00
2023-02-02T18:20:31.345Z,25.70
2023-02-02T18:23:35.103Z,18.00
2023-02-02T18:26:50.119Z,14.90
2023-02-02T18:29:56.641Z,17.30
2023-02-02T18:33:02.513Z,16.80
2023-02-02T18:36:35.852Z,20.20
2023-02-02T18:39:49.393Z,20.10
2023-02-02T18:42:52.519Z,19.50
2023-02-02T18:46:05.181Z,19.70
2023-02-02T18:49:10.743Z,14.60
2023-02-02T18:52:15.187Z,12.30
2023-02-02T18:55:19.293Z,13.40
2023-02-02T18:58:22.381Z,17.20
2023-02-02T19:01:25.857Z,13.50
2023-02-02T19:04:27.907Z,13.60
2023-02-02T19:07:54.383Z,16.10
2023-02-02T19:11:01.737Z,13.70
2023-02-02T19:14:37.164Z,20.10
2023-02-02T19:17:40.484Z,19.10
2023-02-02T19:20:43.545Z,19.70
2023-02-02T19:23:50.388Z,14.10
2023-02-02T19:26:54.794Z,15.70
2023-02-02T19:30:00.944Z,13.00
2023-02-02T19:33:14.721Z,14.70
2023-02-02T19:36:23.767Z,14.70
2023-02-02T19:39:30.823Z,12.90
2023-02-02T19:42:40.260Z,15.50
2023-02-02T19:45:45.809Z,14.70
2023-02-02T19:49:15.713Z,12.90
2023-02-02T19:52:26.738Z,14.90
2023-02-02T19:55:35.477Z,14.40
2023-02-02T22:21:48.610Z,28.80
2023-02-02T22:25:04.625Z,23.70
2023-02-02T22:28:23.743Z,20.90
2023-02-02T22:31:28.049Z,20.20
2023-02-02T22:34:35.562Z,18.80
2023-02-02T22:37:38.027Z,16.00
2023-02-02T22:40:40.369Z,15.50
2023-02-02T22:43:42.826Z,13.80
2023-02-02T22:46:46.106Z,16.10
2023-02-02T22:49:48.571Z,17.20
2023-02-02T22:52:53.939Z,20.10
2023-02-02T22:56:03.545Z,16.50
2023-02-02T22:59:17.287Z,14.30
2023-02-02T23:02:26.806Z,16.60
2023-02-02T23:05:29.801Z,14.60
2023-02-02T23:08:33.963Z,16.20
2023-02-02T23:11:55.520Z,14.50
2023-02-02T23:15:05.924Z,13.60
2023-02-02T23:18:12.683Z,16.00
2023-02-02T23:21:19.680Z,16.20
2023-02-02T23:27:01.902Z,15.00
2023-02-02T23:30:08.623Z,13.30
2023-02-02T23:33:12.225Z,16.30
2023-02-02T23:36:15.643Z,15.00
2023-02-02T23:39:17.905Z,20.50
2023-02-02T23:42:21.573Z,13.90
2023-02-02T23:45:24.717Z,15.30
2023-02-02T23:48:30.433Z,13.40
2023-02-02T23:51:33.153Z,12.30
2023-02-02T23:54:35.714Z,19.70
2023-02-02T23:57:38.271Z,16.60
